sensor_id;sensor_type;location;lat;lon;timestamp;P1;durP1;ratioP1;P2;durP2;ratioP2
27489;SDS011;14925;51.026;13.752;2022-08-19T00:02:22;23.08;;;16.52;;
27489;SDS011;14925;51.026;13.752;2022-08-19T00:04:47;20.13;;;16.70;;
27489;SDS011;14925;51.026;13.752;2022-08-19T00:07:17;21.40;;;17.05;;
27489;SDS011;14925;51.026;13.752;2022-08-19T00:09:43;20.20;;;16.50;;
27489;SDS011;14925;51.026;13.752;2022-08-19T00:12:09;22.45;;;18.38;;
27489;SDS011;14925;51.026;13.752;2022-08-19T00:14:37;22.35;;;18.10;;
27489;SDS011;14925;51.026;13.752;2022-08-19T00:17:04;25.90;;;18.85;;
27489;SDS011;14925;51.026;13.752;2022-08-19T00:19:31;20.15;;;17.77;;
27489;SDS011;14925;51.026;13.752;2022-08-19T00:21:56;21.48;;;18.90;;
27489;SDS011;14925;51.026;13.752;2022-08-19T00:24:21;24.65;;;19.25;;
27489;SDS011;14925;51.026;13.752;2022-08-19T00:26:47;24.38;;;19.70;;
27489;SDS011;14925;51.026;13.752;2022-08-19T00:29:17;22.70;;;18.90;;
27489;SDS011;14925;51.026;13.752;2022-08-19T00:31:45;22.55;;;18.42;;
27489;SDS011;14925;51.026;13.752;2022-08-19T00:34:12;26.50;;;18.83;;
27489;SDS011;14925;51.026;13.752;2022-08-19T00:36:38;24.55;;;19.23;;
27489;SDS011;14925;51.026;13.752;2022-08-19T00:39:04;22.80;;;18.95;;
27489;SDS011;14925;51.026;13.752;2022-08-19T00:41:29;23.50;;;20.10;;
27489;SDS011;14925;51.026;13.752;2022-08-19T00:43:59;24.55;;;20.85;;
27489;SDS011;14925;51.026;13.752;2022-08-19T00:46:27;20.58;;;18.33;;
27489;SDS011;14925;51.026;13.752;2022-08-19T00:48:53;21.60;;;18.40;;
27489;SDS011;14925;51.026;13.752;2022-08-19T00:51:19;26.85;;;20.30;;
27489;SDS011;14925;51.026;13.752;2022-08-19T00:53:48;22.38;;;18.55;;
27489;SDS011;14925;51.026;13.752;2022-08-19T00:56:13;23.42;;;18.63;;
27489;SDS011;14925;51.026;13.752;2022-08-19T00:58:40;31.00;;;20.58;;
27489;SDS011;14925;51.026;13.752;2022-08-19T01:01:05;23.25;;;20.20;;
27489;SDS011;14925;51.026;13.752;2022-08-19T01:03:32;23.73;;;20.35;;
27489;SDS011;14925;51.026;13.752;2022-08-19T01:05:58;26.92;;;20.00;;
27489;SDS011;14925;51.026;13.752;2022-08-19T01:08:24;23.63;;;20.50;;
27489;SDS011;14925;51.026;13.752;2022-08-19T01:10:52;23.83;;;19.58;;
27489;SDS011;14925;51.026;13.752;2022-08-19T01:13:20;22.40;;;19.35;;
27489;SDS011;14925;51.026;13.752;2022-08-19T01:15:50;24.45;;;20.67;;
27489;SDS011;14925;51.026;13.752;2022-08-19T01:18:19;22.88;;;19.55;;
27489;SDS011;14925;51.026;13.752;2022-08-19T01:20:45;26.67;;;19.30;;
27489;SDS011;14925;51.026;13.752;2022-08-19T01:23:11;23.40;;;20.90;;
27489;SDS011;14925;51.026;13.752;2022-08-19T01:25:45;22.90;;;18.70;;
27489;SDS011;14925;51.026;13.752;2022-08-19T01:28:23;25.13;;;20.40;;
27489;SDS011;14925;51.026;13.752;2022-08-19T01:30:50;25.00;;;20.67;;
27489;SDS011;14925;51.026;13.752;2022-08-19T01:33:16;24.63;;;21.08;;
27489;SDS011;14925;51.026;13.752;2022-08-19T01:35:42;25.20;;;21.50;;
27489;SDS011;14925;51.026;13.752;2022-08-19T01:38:18;22.35;;;19.98;;
27489;SDS011;14925;51.026;13.752;2022-08-19T01:40:49;22.70;;;20.40;;
27489;SDS011;14925;51.026;13.752;2022-08-19T01:43:14;25.13;;;20.73;;
27489;SDS011;14925;51.026;13.752;2022-08-19T01:45:44;23.83;;;20.15;;
27489;SDS011;14925;51.026;13.752;2022-08-19T01:48:09;22.73;;;20.27;;
27489;SDS011;14925;51.026;13.752;2022-08-19T01:50:42;26.17;;;20.75;;
27489;SDS011;14925;51.026;13.752;2022-08-19T01:53:10;23.17;;;19.88;;
27489;SDS011;14925;51.026;13.752;2022-08-19T01:55:38;22.25;;;19.85;;
27489;SDS011;14925;51.026;13.752;2022-08-19T01:58:04;23.05;;;20.40;;
27489;SDS011;14925;51.026;13.752;2022-08-19T02:00:33;24.80;;;20.63;;
27489;SDS011;14925;51.026;13.752;2022-08-19T02:02:59;24.88;;;20.15;;
27489;SDS011;14925;51.026;13.752;2022-08-19T02:05:27;27.08;;;21.10;;
27489;SDS011;14925;51.026;13.752;2022-08-19T02:07:54;23.05;;;19.70;;
27489;SDS011;14925;51.026;13.752;2022-08-19T02:10:23;25.17;;;21.98;;
27489;SDS011;14925;51.026;13.752;2022-08-19T02:12:49;25.60;;;21.13;;
27489;SDS011;14925;51.026;13.752;2022-08-19T02:15:17;23.30;;;20.60;;
27489;SDS011;14925;51.026;13.752;2022-08-19T02:17:46;27.13;;;21.13;;
27489;SDS011;14925;51.026;13.752;2022-08-19T02:20:15;24.73;;;20.67;;
27489;SDS011;14925;51.026;13.752;2022-08-19T02:22:43;24.67;;;20.65;;
27489;SDS011;14925;51.026;13.752;2022-08-19T02:25:12;24.55;;;20.85;;
27489;SDS011;14925;51.026;13.752;2022-08-19T02:27:39;24.77;;;21.45;;
27489;SDS011;14925;51.026;13.752;2022-08-19T02:30:06;23.02;;;20.17;;
27489;SDS011;14925;51.026;13.752;2022-08-19T02:32:33;25.52;;;20.98;;
27489;SDS011;14925;51.026;13.752;2022-08-19T02:34:59;22.83;;;20.45;;
27489;SDS011;14925;51.026;13.752;2022-08-19T02:37:27;27.30;;;21.35;;
27489;SDS011;14925;51.026;13.752;2022-08-19T02:40:14;24.40;;;20.58;;
27489;SDS011;14925;51.026;13.752;2022-08-19T02:42:47;23.55;;;19.20;;
27489;SDS011;14925;51.026;13.752;2022-08-19T02:45:12;21.77;;;19.50;;
27489;SDS011;14925;51.026;13.752;2022-08-19T02:47:38;23.02;;;19.70;;
27489;SDS011;14925;51.026;13.752;2022-08-19T02:50:04;22.25;;;19.23;;
27489;SDS011;14925;51.026;13.752;2022-08-19T02:52:31;24.20;;;19.65;;
27489;SDS011;14925;51.026;13.752;2022-08-19T02:55:00;24.83;;;21.80;;
27489;SDS011;14925;51.026;13.752;2022-08-19T02:57:26;25.38;;;20.50;;
27489;SDS011;14925;51.026;13.752;2022-08-19T02:59:51;23.55;;;20.65;;
27489;SDS011;14925;51.026;13.752;2022-08-19T03:02:20;23.08;;;20.48;;
27489;SDS011;14925;51.026;13.752;2022-08-19T03:04:48;21.67;;;19.33;;
27489;SDS011;14925;51.026;13.752;2022-08-19T03:07:14;24.27;;;20.17;;
27489;SDS011;14925;51.026;13.752;2022-08-19T03:09:43;22.73;;;20.02;;
27489;SDS011;14925;51.026;13.752;2022-08-19T03:12:09;23.13;;;20.48;;
27489;SDS011;14925;51.026;13.752;2022-08-19T03:14:37;28.80;;;22.23;;
27489;SDS011;14925;51.026;13.752;2022-08-19T03:17:05;25.25;;;21.48;;
27489;SDS011;14925;51.026;13.752;2022-08-19T03:19:31;25.27;;;22.58;;
27489;SDS011;14925;51.026;13.752;2022-08-19T03:22:00;27.33;;;22.60;;
27489;SDS011;14925;51.026;13.752;2022-08-19T03:24:27;26.83;;;21.75;;
27489;SDS011;14925;51.026;13.752;2022-08-19T03:26:58;27.02;;;22.52;;
27489;SDS011;14925;51.026;13.752;2022-08-19T03:29:28;27.05;;;23.13;;
27489;SDS011;14925;51.026;13.752;2022-08-19T03:32:04;25.17;;;21.75;;
27489;SDS011;14925;51.026;13.752;2022-08-19T03:34:32;28.52;;;22.63;;
27489;SDS011;14925;51.026;13.752;2022-08-19T03:37:08;25.75;;;22.95;;
27489;SDS011;14925;51.026;13.752;2022-08-19T03:39:37;27.65;;;24.33;;
27489;SDS011;14925;51.026;13.752;2022-08-19T03:42:04;28.08;;;25.08;;
27489;SDS011;14925;51.026;13.752;2022-08-19T03:44:35;25.83;;;21.95;;
27489;SDS011;14925;51.026;13.752;2022-08-19T03:47:02;26.08;;;23.27;;
27489;SDS011;14925;51.026;13.752;2022-08-19T03:49:29;25.15;;;21.83;;
27489;SDS011;14925;51.026;13.752;2022-08-19T03:51:59;28.13;;;21.05;;
27489;SDS011;14925;51.026;13.752;2022-08-19T03:54:25;25.75;;;22.48;;
27489;SDS011;14925;51.026;13.752;2022-08-19T03:56:55;25.60;;;22.90;;
27489;SDS011;14925;51.026;13.752;2022-08-19T03:59:26;27.58;;;22.15;;
27489;SDS011;14925;51.026;13.752;2022-08-19T04:01:56;27.42;;;24.40;;
27489;SDS011;14925;51.026;13.752;2022-08-19T04:04:25;27.60;;;22.85;;
27489;SDS011;14925;51.026;13.752;2022-08-19T04:06:50;28.15;;;23.52;;
27489;SDS011;14925;51.026;13.752;2022-08-19T04:09:20;28.83;;;22.92;;
27489;SDS011;14925;51.026;13.752;2022-08-19T04:11:48;25.27;;;22.00;;
27489;SDS011;14925;51.026;13.752;2022-08-19T04:14:22;25.42;;;22.77;;
27489;SDS011;14925;51.026;13.752;2022-08-19T04:16:49;27.85;;;23.30;;
27489;SDS011;14925;51.026;13.752;2022-08-19T04:19:18;29.50;;;24.40;;
27489;SDS011;14925;51.026;13.752;2022-08-19T04:21:50;28.73;;;22.85;;
27489;SDS011;14925;51.026;13.752;2022-08-19T04:24:20;25.90;;;23.10;;
27489;SDS011;14925;51.026;13.752;2022-08-19T04:26:49;27.60;;;21.92;;
27489;SDS011;14925;51.026;13.752;2022-08-19T04:29:17;26.30;;;23.45;;
27489;SDS011;14925;51.026;13.752;2022-08-19T04:32:07;27.38;;;23.20;;
27489;SDS011;14925;51.026;13.752;2022-08-19T04:34:35;25.70;;;22.05;;
27489;SDS011;14925;51.026;13.752;2022-08-19T04:37:01;29.63;;;23.52;;
27489;SDS011;14925;51.026;13.752;2022-08-19T04:39:32;27.30;;;23.58;;
27489;SDS011;14925;51.026;13.752;2022-08-19T04:42:17;26.80;;;23.02;;
27489;SDS011;14925;51.026;13.752;2022-08-19T04:45:02;28.60;;;23.83;;
27489;SDS011;14925;51.026;13.752;2022-08-19T04:47:29;29.05;;;24.67;;
27489;SDS011;14925;51.026;13.752;2022-08-19T04:49:54;27.40;;;23.73;;
27489;SDS011;14925;51.026;13.752;2022-08-19T04:52:20;24.67;;;22.15;;
27489;SDS011;14925;51.026;13.752;2022-08-19T04:54:57;30.75;;;22.15;;
27489;SDS011;14925;51.026;13.752;2022-08-19T04:57:23;28.80;;;23.08;;
27489;SDS011;14925;51.026;13.752;2022-08-19T04:59:48;29.88;;;24.00;;
27489;SDS011;14925;51.026;13.752;2022-08-19T05:02:23;29.63;;;23.92;;
27489;SDS011;14925;51.026;13.752;2022-08-19T05:04:50;24.92;;;22.10;;
27489;SDS011;14925;51.026;13.752;2022-08-19T05:07:16;29.20;;;23.50;;
27489;SDS011;14925;51.026;13.752;2022-08-19T05:09:42;35.38;;;22.88;;
27489;SDS011;14925;51.026;13.752;2022-08-19T05:12:07;26.88;;;23.20;;
27489;SDS011;14925;51.026;13.752;2022-08-19T05:14:33;30.52;;;24.55;;
27489;SDS011;14925;51.026;13.752;2022-08-19T05:17:05;29.70;;;24.85;;
27489;SDS011;14925;51.026;13.752;2022-08-19T05:19:31;35.42;;;27.48;;
27489;SDS011;14925;51.026;13.752;2022-08-19T05:22:15;31.27;;;26.63;;
27489;SDS011;14925;51.026;13.752;2022-08-19T05:25:07;31.17;;;27.10;;
27489;SDS011;14925;51.026;13.752;2022-08-19T05:27:35;35.63;;;27.95;;
27489;SDS011;14925;51.026;13.752;2022-08-19T05:30:00;33.65;;;27.67;;
27489;SDS011;14925;51.026;13.752;2022-08-19T05:32:26;30.92;;;24.35;;
27489;SDS011;14925;51.026;13.752;2022-08-19T05:34:52;32.60;;;25.65;;
27489;SDS011;14925;51.026;13.752;2022-08-19T05:37:17;34.60;;;26.88;;
27489;SDS011;14925;51.026;13.752;2022-08-19T05:39:48;26.90;;;23.83;;
27489;SDS011;14925;51.026;13.752;2022-08-19T05:42:14;32.55;;;23.98;;
27489;SDS011;14925;51.026;13.752;2022-08-19T05:44:44;32.78;;;26.10;;
27489;SDS011;14925;51.026;13.752;2022-08-19T05:47:10;33.38;;;26.48;;
27489;SDS011;14925;51.026;13.752;2022-08-19T05:49:37;31.92;;;26.90;;
27489;SDS011;14925;51.026;13.752;2022-08-19T05:52:04;28.58;;;24.55;;
27489;SDS011;14925;51.026;13.752;2022-08-19T05:54:30;35.33;;;25.55;;
27489;SDS011;14925;51.026;13.752;2022-08-19T05:57:00;28.25;;;24.08;;
27489;SDS011;14925;51.026;13.752;2022-08-19T05:59:25;32.63;;;24.27;;
27489;SDS011;14925;51.026;13.752;2022-08-19T06:01:51;25.75;;;22.98;;
27489;SDS011;14925;51.026;13.752;2022-08-19T06:04:19;28.60;;;23.33;;
27489;SDS011;14925;51.026;13.752;2022-08-19T06:06:45;26.92;;;23.17;;
27489;SDS011;14925;51.026;13.752;2022-08-19T06:09:12;26.50;;;23.35;;
27489;SDS011;14925;51.026;13.752;2022-08-19T06:11:39;27.48;;;23.10;;
27489;SDS011;14925;51.026;13.752;2022-08-19T06:14:07;27.25;;;23.23;;
27489;SDS011;14925;51.026;13.752;2022-08-19T06:16:38;23.70;;;21.17;;
27489;SDS011;14925;51.026;13.752;2022-08-19T06:19:05;22.35;;;20.15;;
27489;SDS011;14925;51.026;13.752;2022-08-19T06:21:35;24.73;;;20.83;;
27489;SDS011;14925;51.026;13.752;2022-08-19T06:24:08;22.83;;;19.80;;
27489;SDS011;14925;51.026;13.752;2022-08-19T06:26:35;21.73;;;18.50;;
27489;SDS011;14925;51.026;13.752;2022-08-19T06:29:05;25.05;;;18.35;;
27489;SDS011;14925;51.026;13.752;2022-08-19T06:31:32;22.15;;;18.30;;
27489;SDS011;14925;51.026;13.752;2022-08-19T06:34:02;18.65;;;16.60;;
27489;SDS011;14925;51.026;13.752;2022-08-19T06:36:30;18.70;;;15.48;;
27489;SDS011;14925;51.026;13.752;2022-08-19T06:39:01;17.58;;;14.85;;
27489;SDS011;14925;51.026;13.752;2022-08-19T06:41:33;16.45;;;14.00;;
27489;SDS011;14925;51.026;13.752;2022-08-19T06:43:59;16.75;;;14.95;;
27489;SDS011;14925;51.026;13.752;2022-08-19T06:46:25;20.20;;;15.05;;
27489;SDS011;14925;51.026;13.752;2022-08-19T06:48:51;18.30;;;13.88;;
27489;SDS011;14925;51.026;13.752;2022-08-19T06:51:18;16.02;;;14.43;;
27489;SDS011;14925;51.026;13.752;2022-08-19T06:53:50;17.23;;;14.77;;
27489;SDS011;14925;51.026;13.752;2022-08-19T06:56:18;17.13;;;13.82;;
27489;SDS011;14925;51.026;13.752;2022-08-19T06:58:45;16.67;;;13.50;;
27489;SDS011;14925;51.026;13.752;2022-08-19T07:01:12;17.70;;;14.55;;
27489;SDS011;14925;51.026;13.752;2022-08-19T07:03:37;14.90;;;13.23;;
27489;SDS011;14925;51.026;13.752;2022-08-19T07:06:14;20.13;;;13.48;;
27489;SDS011;14925;51.026;13.752;2022-08-19T07:08:42;21.27;;;13.85;;
27489;SDS011;14925;51.026;13.752;2022-08-19T07:11:12;21.83;;;14.98;;
27489;SDS011;14925;51.026;13.752;2022-08-19T07:13:39;24.17;;;15.20;;
27489;SDS011;14925;51.026;13.752;2022-08-19T07:16:09;23.73;;;15.82;;
27489;SDS011;14925;51.026;13.752;2022-08-19T07:18:37;26.67;;;16.83;;
27489;SDS011;14925;51.026;13.752;2022-08-19T07:21:08;23.50;;;17.33;;
27489;SDS011;14925;51.026;13.752;2022-08-19T07:26:17;27.80;;;19.00;;
27489;SDS011;14925;51.026;13.752;2022-08-19T07:28:50;27.83;;;18.23;;
27489;SDS011;14925;51.026;13.752;2022-08-19T07:31:19;28.13;;;19.08;;
27489;SDS011;14925;51.026;13.752;2022-08-19T07:33:49;29.85;;;17.60;;
27489;SDS011;14925;51.026;13.752;2022-08-19T07:36:22;30.02;;;19.75;;
27489;SDS011;14925;51.026;13.752;2022-08-19T07:38:57;27.13;;;19.75;;
27489;SDS011;14925;51.026;13.752;2022-08-19T07:41:24;27.77;;;20.00;;
27489;SDS011;14925;51.026;13.752;2022-08-19T07:43:50;27.25;;;19.42;;
27489;SDS011;14925;51.026;13.752;2022-08-19T07:46:16;28.65;;;21.92;;
27489;SDS011;14925;51.026;13.752;2022-08-19T07:48:43;30.88;;;21.27;;
27489;SDS011;14925;51.026;13.752;2022-08-19T07:51:15;27.13;;;22.25;;
27489;SDS011;14925;51.026;13.752;2022-08-19T07:53:42;33.03;;;23.20;;
27489;SDS011;14925;51.026;13.752;2022-08-19T07:56:09;30.08;;;23.05;;
27489;SDS011;14925;51.026;13.752;2022-08-19T07:58:37;43.15;;;26.10;;
27489;SDS011;14925;51.026;13.752;2022-08-19T08:01:05;39.22;;;25.65;;
27489;SDS011;14925;51.026;13.752;2022-08-19T08:03:31;37.40;;;26.17;;
27489;SDS011;14925;51.026;13.752;2022-08-19T08:06:16;39.83;;;26.70;;
27489;SDS011;14925;51.026;13.752;2022-08-19T08:09:03;30.23;;;25.02;;
27489;SDS011;14925;51.026;13.752;2022-08-19T08:11:53;34.88;;;27.00;;
27489;SDS011;14925;51.026;13.752;2022-08-19T08:14:26;29.83;;;23.67;;
27489;SDS011;14925;51.026;13.752;2022-08-19T08:17:00;29.02;;;22.77;;
27489;SDS011;14925;51.026;13.752;2022-08-19T08:19:27;29.90;;;23.73;;
27489;SDS011;14925;51.026;13.752;2022-08-19T08:21:54;30.88;;;23.30;;
27489;SDS011;14925;51.026;13.752;2022-08-19T08:24:20;30.83;;;23.45;;
27489;SDS011;14925;51.026;13.752;2022-08-19T08:26:46;25.92;;;23.05;;
27489;SDS011;14925;51.026;13.752;2022-08-19T08:29:12;36.30;;;24.88;;
27489;SDS011;14925;51.026;13.752;2022-08-19T08:31:42;30.83;;;23.45;;
27489;SDS011;14925;51.026;13.752;2022-08-19T08:34:13;37.60;;;24.23;;
27489;SDS011;14925;51.026;13.752;2022-08-19T08:36:40;26.85;;;22.13;;
27489;SDS011;14925;51.026;13.752;2022-08-19T08:39:15;28.70;;;22.85;;
27489;SDS011;14925;51.026;13.752;2022-08-19T08:44:25;28.92;;;23.50;;
27489;SDS011;14925;51.026;13.752;2022-08-19T08:51:54;27.27;;;21.02;;
27489;SDS011;14925;51.026;13.752;2022-08-19T08:54:26;28.08;;;24.02;;
27489;SDS011;14925;51.026;13.752;2022-08-19T08:56:56;25.60;;;22.70;;
27489;SDS011;14925;51.026;13.752;2022-08-19T08:59:24;30.02;;;24.73;;
27489;SDS011;14925;51.026;13.752;2022-08-19T09:01:56;28.70;;;22.40;;
27489;SDS011;14925;51.026;13.752;2022-08-19T09:04:22;24.98;;;21.05;;
27489;SDS011;14925;51.026;13.752;2022-08-19T09:10:02;20.00;;;16.70;;
27489;SDS011;14925;51.026;13.752;2022-08-19T09:15:28;19.50;;;15.07;;
27489;SDS011;14925;51.026;13.752;2022-08-19T09:18:01;17.70;;;15.63;;
27489;SDS011;14925;51.026;13.752;2022-08-19T09:20:28;17.25;;;15.45;;
27489;SDS011;14925;51.026;13.752;2022-08-19T09:22:53;17.15;;;15.30;;
27489;SDS011;14925;51.026;13.752;2022-08-19T09:25:25;17.38;;;15.20;;
27489;SDS011;14925;51.026;13.752;2022-08-19T09:27:54;19.27;;;15.88;;
27489;SDS011;14925;51.026;13.752;2022-08-19T09:30:25;16.98;;;15.20;;
27489;SDS011;14925;51.026;13.752;2022-08-19T09:32:51;17.80;;;15.88;;
27489;SDS011;14925;51.026;13.752;2022-08-19T09:35:23;17.40;;;15.50;;
27489;SDS011;14925;51.026;13.752;2022-08-19T09:37:51;17.42;;;15.18;;
27489;SDS011;14925;51.026;13.752;2022-08-19T09:40:20;18.10;;;15.65;;
27489;SDS011;14925;51.026;13.752;2022-08-19T09:42:45;19.33;;;15.88;;
27489;SDS011;14925;51.026;13.752;2022-08-19T09:45:12;21.33;;;17.27;;
27489;SDS011;14925;51.026;13.752;2022-08-19T09:47:39;17.42;;;15.63;;
27489;SDS011;14925;51.026;13.752;2022-08-19T09:50:05;17.67;;;15.77;;
27489;SDS011;14925;51.026;13.752;2022-08-19T09:52:32;22.17;;;17.08;;
27489;SDS011;14925;51.026;13.752;2022-08-19T09:54:57;19.98;;;17.70;;
27489;SDS011;14925;51.026;13.752;2022-08-19T09:57:23;21.00;;;18.10;;
27489;SDS011;14925;51.026;13.752;2022-08-19T09:59:48;19.05;;;17.13;;
27489;SDS011;14925;51.026;13.752;2022-08-19T10:02:16;17.67;;;15.77;;
27489;SDS011;14925;51.026;13.752;2022-08-19T10:04:42;16.60;;;14.80;;
27489;SDS011;14925;51.026;13.752;2022-08-19T10:07:26;16.85;;;15.07;;
27489;SDS011;14925;51.026;13.752;2022-08-19T10:09:54;19.92;;;15.40;;
27489;SDS011;14925;51.026;13.752;2022-08-19T10:12:19;18.20;;;15.63;;
27489;SDS011;14925;51.026;13.752;2022-08-19T10:14:45;16.40;;;14.15;;
27489;SDS011;14925;51.026;13.752;2022-08-19T10:17:11;14.48;;;12.98;;
27489;SDS011;14925;51.026;13.752;2022-08-19T10:19:36;15.73;;;13.55;;
27489;SDS011;14925;51.026;13.752;2022-08-19T10:22:03;14.05;;;12.60;;
27489;SDS011;14925;51.026;13.752;2022-08-19T10:24:32;13.07;;;11.65;;
27489;SDS011;14925;51.026;13.752;2022-08-19T10:26:59;14.70;;;10.95;;
27489;SDS011;14925;51.026;13.752;2022-08-19T10:29:26;11.77;;;9.63;;
27489;SDS011;14925;51.026;13.752;2022-08-19T10:31:54;11.18;;;10.07;;
27489;SDS011;14925;51.026;13.752;2022-08-19T10:34:21;12.65;;;9.90;;
27489;SDS011;14925;51.026;13.752;2022-08-19T10:36:47;11.00;;;9.75;;
27489;SDS011;14925;51.026;13.752;2022-08-19T10:39:22;12.32;;;9.80;;
27489;SDS011;14925;51.026;13.752;2022-08-19T10:41:47;13.13;;;9.27;;
27489;SDS011;14925;51.026;13.752;2022-08-19T10:44:14;11.23;;;8.70;;
27489;SDS011;14925;51.026;13.752;2022-08-19T10:46:44;10.52;;;9.32;;
27489;SDS011;14925;51.026;13.752;2022-08-19T10:49:12;12.88;;;9.27;;
27489;SDS011;14925;51.026;13.752;2022-08-19T10:51:39;9.35;;;7.70;;
27489;SDS011;14925;51.026;13.752;2022-08-19T10:54:24;10.27;;;7.82;;
27489;SDS011;14925;51.026;13.752;2022-08-19T10:57:11;8.00;;;7.20;;
27489;SDS011;14925;51.026;13.752;2022-08-19T10:59:40;7.80;;;6.70;;
27489;SDS011;14925;51.026;13.752;2022-08-19T11:02:07;7.78;;;6.38;;
27489;SDS011;14925;51.026;13.752;2022-08-19T11:04:35;6.75;;;5.68;;
27489;SDS011;14925;51.026;13.752;2022-08-19T11:07:18;8.20;;;6.90;;
27489;SDS011;14925;51.026;13.752;2022-08-19T11:12:29;7.20;;;6.60;;
27489;SDS011;14925;51.026;13.752;2022-08-19T11:14:54;7.22;;;6.63;;
27489;SDS011;14925;51.026;13.752;2022-08-19T11:17:27;7.45;;;6.85;;
27489;SDS011;14925;51.026;13.752;2022-08-19T11:20:00;7.93;;;7.13;;
27489;SDS011;14925;51.026;13.752;2022-08-19T11:22:43;6.80;;;6.20;;
27489;SDS011;14925;51.026;13.752;2022-08-19T11:25:15;7.93;;;6.93;;
27489;SDS011;14925;51.026;13.752;2022-08-19T11:27:46;8.70;;;7.72;;
27489;SDS011;14925;51.026;13.752;2022-08-19T11:30:15;8.90;;;7.93;;
27489;SDS011;14925;51.026;13.752;2022-08-19T11:32:41;8.85;;;7.95;;
27489;SDS011;14925;51.026;13.752;2022-08-19T11:35:06;10.85;;;8.75;;
27489;SDS011;14925;51.026;13.752;2022-08-19T11:37:32;12.02;;;9.82;;
27489;SDS011;14925;51.026;13.752;2022-08-19T11:40:02;11.25;;;9.20;;
27489;SDS011;14925;51.026;13.752;2022-08-19T11:42:28;10.32;;;8.98;;
27489;SDS011;14925;51.026;13.752;2022-08-19T11:45:15;8.75;;;7.95;;
27489;SDS011;14925;51.026;13.752;2022-08-19T11:47:43;8.93;;;8.07;;
27489;SDS011;14925;51.026;13.752;2022-08-19T11:50:09;12.43;;;10.32;;
27489;SDS011;14925;51.026;13.752;2022-08-19T11:53:00;11.57;;;10.38;;
27489;SDS011;14925;51.026;13.752;2022-08-19T11:58:54;14.68;;;11.57;;
27489;SDS011;14925;51.026;13.752;2022-08-19T12:01:32;12.88;;;11.50;;
27489;SDS011;14925;51.026;13.752;2022-08-19T12:03:58;13.50;;;12.10;;
27489;SDS011;14925;51.026;13.752;2022-08-19T12:06:40;14.73;;;12.77;;
27489;SDS011;14925;51.026;13.752;2022-08-19T12:09:06;14.48;;;12.05;;
27489;SDS011;14925;51.026;13.752;2022-08-19T12:11:42;13.80;;;12.40;;
27489;SDS011;14925;51.026;13.752;2022-08-19T12:14:12;15.10;;;12.90;;
27489;SDS011;14925;51.026;13.752;2022-08-19T12:16:43;15.90;;;14.17;;
27489;SDS011;14925;51.026;13.752;2022-08-19T12:19:11;14.65;;;12.75;;
27489;SDS011;14925;51.026;13.752;2022-08-19T12:21:36;16.17;;;14.57;;
27489;SDS011;14925;51.026;13.752;2022-08-19T12:24:03;16.77;;;14.27;;
27489;SDS011;14925;51.026;13.752;2022-08-19T12:26:30;22.60;;;16.08;;
27489;SDS011;14925;51.026;13.752;2022-08-19T12:28:58;20.02;;;17.25;;
27489;SDS011;14925;51.026;13.752;2022-08-19T12:31:32;24.90;;;19.45;;
27489;SDS011;14925;51.026;13.752;2022-08-19T12:34:02;23.73;;;17.83;;
27489;SDS011;14925;51.026;13.752;2022-08-19T12:36:30;19.63;;;16.63;;
27489;SDS011;14925;51.026;13.752;2022-08-19T12:38:58;24.73;;;19.52;;
27489;SDS011;14925;51.026;13.752;2022-08-19T12:41:26;24.52;;;20.95;;
27489;SDS011;14925;51.026;13.752;2022-08-19T12:43:52;24.02;;;20.05;;
27489;SDS011;14925;51.026;13.752;2022-08-19T12:46:18;26.75;;;20.55;;
27489;SDS011;14925;51.026;13.752;2022-08-19T12:48:45;24.75;;;19.92;;
27489;SDS011;14925;51.026;13.752;2022-08-19T12:51:14;26.15;;;20.75;;
27489;SDS011;14925;51.026;13.752;2022-08-19T12:53:59;25.35;;;20.88;;
27489;SDS011;14925;51.026;13.752;2022-08-19T12:56:27;25.15;;;20.02;;
27489;SDS011;14925;51.026;13.752;2022-08-19T12:58:52;22.63;;;18.90;;
27489;SDS011;14925;51.026;13.752;2022-08-19T13:01:20;24.25;;;19.52;;
27489;SDS011;14925;51.026;13.752;2022-08-19T13:03:45;21.60;;;18.48;;
27489;SDS011;14925;51.026;13.752;2022-08-19T13:06:14;22.38;;;18.25;;
27489;SDS011;14925;51.026;13.752;2022-08-19T13:08:46;25.95;;;19.60;;
27489;SDS011;14925;51.026;13.752;2022-08-19T13:11:50;26.50;;;20.65;;
27489;SDS011;14925;51.026;13.752;2022-08-19T13:14:15;25.20;;;21.40;;
27489;SDS011;14925;51.026;13.752;2022-08-19T13:16:40;26.70;;;21.23;;
27489;SDS011;14925;51.026;13.752;2022-08-19T13:19:06;23.52;;;19.00;;
27489;SDS011;14925;51.026;13.752;2022-08-19T13:21:32;22.10;;;19.70;;
27489;SDS011;14925;51.026;13.752;2022-08-19T13:23:58;22.10;;;18.73;;
27489;SDS011;14925;51.026;13.752;2022-08-19T13:26:26;27.67;;;22.92;;
27489;SDS011;14925;51.026;13.752;2022-08-19T13:28:51;24.83;;;21.15;;
27489;SDS011;14925;51.026;13.752;2022-08-19T13:31:35;23.88;;;20.88;;
27489;SDS011;14925;51.026;13.752;2022-08-19T13:34:25;29.83;;;23.90;;
27489;SDS011;14925;51.026;13.752;2022-08-19T13:36:53;26.60;;;23.45;;
27489;SDS011;14925;51.026;13.752;2022-08-19T13:39:18;24.85;;;22.13;;
27489;SDS011;14925;51.026;13.752;2022-08-19T13:41:45;31.48;;;24.02;;
27489;SDS011;14925;51.026;13.752;2022-08-19T13:44:14;33.58;;;24.67;;
27489;SDS011;14925;51.026;13.752;2022-08-19T13:46:40;26.02;;;21.60;;
27489;SDS011;14925;51.026;13.752;2022-08-19T13:49:10;27.40;;;23.70;;
27489;SDS011;14925;51.026;13.752;2022-08-19T13:51:45;29.27;;;24.17;;
27489;SDS011;14925;51.026;13.752;2022-08-19T13:54:11;33.60;;;26.00;;
27489;SDS011;14925;51.026;13.752;2022-08-19T13:56:40;36.70;;;29.10;;
27489;SDS011;14925;51.026;13.752;2022-08-19T13:59:07;33.53;;;27.98;;
27489;SDS011;14925;51.026;13.752;2022-08-19T14:01:32;34.35;;;30.27;;
27489;SDS011;14925;51.026;13.752;2022-08-19T14:04:01;45.03;;;32.63;;
27489;SDS011;14925;51.026;13.752;2022-08-19T14:06:27;41.67;;;31.95;;
27489;SDS011;14925;51.026;13.752;2022-08-19T14:08:52;40.65;;;32.03;;
27489;SDS011;14925;51.026;13.752;2022-08-19T14:11:18;40.90;;;31.83;;
27489;SDS011;14925;51.026;13.752;2022-08-19T14:13:43;42.17;;;32.42;;
27489;SDS011;14925;51.026;13.752;2022-08-19T14:16:12;41.08;;;34.13;;
27489;SDS011;14925;51.026;13.752;2022-08-19T14:18:39;42.05;;;31.67;;
27489;SDS011;14925;51.026;13.752;2022-08-19T14:21:04;39.15;;;32.20;;
27489;SDS011;14925;51.026;13.752;2022-08-19T14:23:31;44.13;;;33.45;;
27489;SDS011;14925;51.026;13.752;2022-08-19T14:29:10;40.10;;;32.70;;
27489;SDS011;14925;51.026;13.752;2022-08-19T14:32:01;41.53;;;33.05;;
27489;SDS011;14925;51.026;13.752;2022-08-19T14:34:28;44.20;;;32.67;;
27489;SDS011;14925;51.026;13.752;2022-08-19T14:36:53;43.80;;;31.73;;
27489;SDS011;14925;51.026;13.752;2022-08-19T14:39:19;41.20;;;30.45;;
27489;SDS011;14925;51.026;13.752;2022-08-19T14:41:44;41.85;;;33.67;;
27489;SDS011;14925;51.026;13.752;2022-08-19T14:44:12;42.92;;;31.30;;
27489;SDS011;14925;51.026;13.752;2022-08-19T14:46:38;44.53;;;32.45;;
27489;SDS011;14925;51.026;13.752;2022-08-19T14:49:03;47.25;;;35.72;;